createdAt,value
2023-05-18T00:00:25.460Z,183.62
2023-05-18T00:01:26.499Z,182.34
2023-05-18T00:02:26.673Z,182.18
2023-05-18T00:03:25.633Z,183.95
2023-05-18T00:04:26.568Z,183.52
2023-05-18T00:05:25.541Z,183.67
2023-05-18T00:06:25.574Z,182.83
2023-05-18T00:07:26.568Z,182.69
2023-05-18T00:08:25.605Z,182.85
2023-05-18T00:09:26.607Z,182.83
2023-05-18T00:10:26.620Z,183.28
2023-05-18T00:11:25.649Z,182.37
2023-05-18T00:12:26.624Z,183.17
2023-05-18T00:13:25.646Z,182.93
2023-05-18T00:14:25.664Z,184.23
2023-05-18T00:15:26.692Z,182.35
2023-05-18T00:16:26.720Z,181.43
2023-05-18T00:17:25.777Z,181.06
2023-05-18T00:18:26.795Z,181.02
2023-05-18T00:19:26.785Z,180.37
2023-05-18T00:20:26.839Z,181.12
2023-05-18T00:21:26.747Z,183.24
2023-05-18T00:22:26.809Z,181.68
2023-05-18T00:23:26.781Z,181.55
2023-05-18T00:24:26.809Z,182.10
2023-05-18T00:25:25.833Z,180.42
2023-05-18T00:26:26.817Z,181.40
2023-05-18T00:27:25.847Z,181.43
2023-05-18T00:28:26.868Z,180.27
2023-05-18T00:29:26.891Z,180.61
2023-05-18T00:30:26.878Z,180.83
2023-05-18T00:31:26.957Z,181.02
2023-05-18T00:32:26.942Z,180.30
2023-05-18T00:33:25.939Z,179.65
2023-05-18T00:34:26.964Z,179.94
2023-05-18T00:35:26.996Z,178.94
2023-05-18T00:36:26.030Z,181.63
2023-05-18T00:37:27.089Z,177.53
2023-05-18T00:38:27.073Z,180.03
2023-05-18T00:39:27.050Z,182.07
2023-05-18T00:40:26.061Z,177.20
2023-05-18T00:41:27.108Z,178.98
2023-05-18T00:42:27.116Z,177.54
2023-05-18T00:43:27.146Z,178.34
2023-05-18T00:44:27.145Z,178.46
2023-05-18T00:45:26.171Z,179.19
2023-05-18T00:46:26.261Z,178.69
2023-05-18T00:47:26.183Z,179.50
2023-05-18T00:48:27.206Z,179.85
2023-05-18T00:49:27.248Z,178.43
2023-05-18T00:50:27.252Z,178.63
2023-05-18T00:51:26.337Z,179.10
2023-05-18T00:52:27.285Z,178.36
2023-05-18T00:53:26.300Z,178.54
2023-05-18T00:54:27.359Z,179.36
2023-05-18T00:55:27.519Z,178.96
2023-05-18T00:56:26.363Z,178.21
2023-05-18T00:57:27.399Z,179.05
2023-05-18T00:58:26.368Z,179.88
2023-05-18T00:59:26.395Z,180.03
2023-05-18T01:00:27.595Z,179.48
2023-05-18T01:01:27.472Z,180.11
2023-05-18T01:02:27.561Z,177.93
2023-05-18T01:03:26.559Z,176.94
2023-05-18T01:04:27.487Z,177.35
2023-05-18T01:05:27.562Z,177.45
2023-05-18T01:06:26.549Z,177.08
2023-05-18T01:07:26.740Z,177.30
2023-05-18T01:08:27.589Z,177.02
2023-05-18T01:09:26.589Z,178.01
2023-05-18T01:10:27.619Z,177.13
2023-05-18T01:11:26.704Z,178.09
2023-05-18T01:12:27.651Z,177.46
2023-05-18T01:13:27.715Z,177.00
2023-05-18T01:14:29.898Z,177.52
2023-05-18T01:15:27.826Z,179.91
2023-05-18T01:16:26.710Z,177.70
2023-05-18T01:17:26.702Z,177.94
2023-05-18T01:18:27.661Z,177.13
2023-05-18T01:19:26.651Z,176.34
2023-05-18T01:20:27.649Z,177.32
2023-05-18T01:21:26.691Z,176.49
2023-05-18T01:22:27.642Z,177.46
2023-05-18T01:23:27.630Z,178.63
2023-05-18T01:24:27.619Z,176.77
2023-05-18T01:25:27.864Z,177.90
2023-05-18T01:26:27.622Z,177.38
2023-05-18T01:27:27.592Z,176.70
2023-05-18T01:28:27.594Z,176.85
2023-05-18T01:29:26.614Z,176.40
2023-05-18T01:30:27.717Z,175.96
2023-05-18T01:31:27.780Z,174.38
2023-05-18T01:32:26.635Z,174.89
2023-05-18T01:33:27.575Z,175.07
2023-05-18T01:34:27.593Z,175.13
2023-05-18T01:35:27.800Z,175.79
2023-05-18T01:36:27.601Z,176.56
2023-05-18T01:37:27.548Z,176.07
2023-05-18T01:38:27.517Z,175.30
2023-05-18T01:39:27.506Z,175.03
2023-05-18T01:40:26.513Z,175.74
2023-05-18T01:41:27.560Z,177.25
2023-05-18T01:42:26.494Z,174.07
2023-05-18T01:43:26.494Z,173.51
2023-05-18T01:44:26.482Z,174.53
2023-05-18T01:45:26.508Z,173.70
2023-05-18T01:46:27.504Z,173.40
2023-05-18T01:47:27.496Z,175.86
2023-05-18T01:48:27.465Z,175.32
2023-05-18T01:49:27.448Z,173.96
2023-05-18T01:50:27.434Z,172.77
2023-05-18T01:51:26.428Z,173.06
2023-05-18T01:52:26.421Z,174.59
2023-05-18T01:53:26.841Z,172.86
2023-05-18T01:54:27.407Z,173.97
2023-05-18T01:55:26.397Z,175.19
2023-05-18T01:56:26.406Z,175.68
2023-05-18T01:57:27.412Z,172.64
2023-05-18T01:58:27.427Z,172.87
2023-05-18T01:59:27.450Z,176.17
2023-05-18T02:00:26.468Z,173.22
2023-05-18T02:01:27.579Z,173.53
2023-05-18T02:02:26.672Z,173.45
2023-05-18T02:03:27.605Z,174.63
2023-05-18T02:04:26.549Z,173.06
2023-05-18T02:05:26.568Z,174.66
2023-05-18T02:06:26.629Z,173.26
2023-05-18T02:07:26.640Z,173.20
2023-05-18T02:08:27.659Z,171.29
2023-05-18T02:09:27.691Z,173.12
2023-05-18T02:10:26.692Z,173.99
2023-05-18T02:11:27.707Z,172.74
2023-05-18T02:12:27.718Z,173.23
2023-05-18T02:13:27.740Z,172.45
2023-05-18T02:14:27.785Z,170.34
2023-05-18T02:15:26.783Z,173.14
2023-05-18T02:16:26.841Z,172.82
2023-05-18T02:17:26.901Z,171.78
2023-05-18T02:18:27.876Z,171.64
2023-05-18T02:19:27.976Z,172.57
2023-05-18T02:20:30.302Z,172.10
2023-05-18T02:21:27.945Z,173.02
2023-05-18T02:22:27.917Z,174.94
2023-05-18T02:23:27.917Z,173.20
2023-05-18T02:24:27.962Z,171.08
2023-05-18T02:25:28.007Z,169.66
2023-05-18T02:26:26.882Z,171.70
2023-05-18T02:27:27.898Z,171.65
2023-05-18T02:28:26.867Z,171.83
2023-05-18T02:29:26.875Z,171.09
2023-05-18T02:30:26.864Z,169.31
2023-05-18T02:31:27.870Z,171.87
2023-05-18T02:32:27.969Z,169.87
2023-05-18T02:33:27.873Z,172.27
2023-05-18T02:34:27.837Z,171.58
2023-05-18T02:35:26.835Z,171.44
2023-05-18T02:36:26.834Z,169.44
2023-05-18T02:37:26.826Z,169.79
2023-05-18T02:38:26.810Z,170.86
2023-05-18T02:39:27.820Z,168.00
2023-05-18T02:40:27.802Z,170.68
2023-05-18T02:41:27.883Z,171.61
2023-05-18T02:42:26.798Z,171.52
2023-05-18T02:43:26.786Z,171.10
2023-05-18T02:44:27.771Z,170.25
2023-05-18T02:45:27.879Z,171.60
2023-05-18T02:46:26.883Z,169.24
2023-05-18T02:47:27.812Z,169.55
2023-05-18T02:48:27.756Z,169.85
2023-05-18T02:49:27.772Z,170.32
2023-05-18T02:50:27.733Z,168.25
2023-05-18T02:51:27.751Z,170.15
2023-05-18T02:52:27.757Z,170.42
2023-05-18T02:53:27.707Z,167.22
2023-05-18T02:54:27.714Z,169.84
2023-05-18T02:55:27.726Z,167.15
2023-05-18T02:56:27.696Z,168.34
2023-05-18T02:57:27.699Z,168.10
2023-05-18T02:58:26.685Z,169.74
2023-05-18T02:59:27.695Z,169.79
2023-05-18T03:00:27.673Z,169.60
2023-05-18T03:01:27.736Z,169.89
2023-05-18T03:02:26.702Z,169.74
2023-05-18T03:03:26.785Z,169.21
2023-05-18T03:04:26.731Z,170.21
2023-05-18T03:05:27.937Z,168.11
2023-05-18T03:06:27.806Z,170.61
2023-05-18T03:07:26.831Z,166.82
2023-05-18T03:08:26.906Z,168.04
2023-05-18T03:09:27.891Z,168.88
2023-05-18T03:10:27.931Z,166.81
2023-05-18T03:11:27.948Z,166.27
2023-05-18T03:12:26.970Z,168.93
2023-05-18T03:13:27.982Z,169.38
2023-05-18T03:14:28.020Z,165.30
2023-05-18T03:15:27.075Z,167.82
2023-05-18T03:16:28.104Z,168.33
2023-05-18T03:17:27.189Z,167.61
2023-05-18T03:18:27.149Z,168.75
2023-05-18T03:19:28.173Z,166.42
2023-05-18T03:20:27.200Z,167.05
2023-05-18T03:21:28.277Z,164.60
2023-05-18T03:22:28.269Z,167.22
2023-05-18T03:23:27.296Z,167.30
2023-05-18T03:24:28.326Z,167.47
2023-05-18T03:25:28.595Z,168.40
2023-05-18T03:26:27.375Z,166.85
2023-05-18T03:27:27.408Z,168.35
2023-05-18T03:28:28.422Z,167.16
2023-05-18T03:29:30.676Z,167.68
2023-05-18T03:30:27.443Z,167.70
2023-05-18T03:31:28.544Z,167.93
2023-05-18T03:32:28.494Z,167.72
2023-05-18T03:33:27.435Z,167.19
2023-05-18T03:34:28.443Z,165.37
2023-05-18T03:35:28.757Z,167.68
2023-05-18T03:36:28.469Z,167.65
2023-05-18T03:37:27.440Z,165.27
2023-05-18T03:38:28.407Z,168.86
2023-05-18T03:39:27.420Z,166.66
2023-05-18T03:40:27.405Z,165.96
2023-05-18T03:41:28.403Z,166.19
2023-05-18T03:42:28.395Z,166.23
2023-05-18T03:43:27.385Z,164.98
2023-05-18T03:44:28.792Z,163.32
2023-05-18T03:45:27.417Z,164.08
2023-05-18T03:46:28.414Z,164.86
2023-05-18T03:47:27.382Z,165.58
2023-05-18T03:48:28.364Z,167.23
2023-05-18T03:49:28.335Z,164.37
2023-05-18T03:50:27.356Z,165.38
2023-05-18T03:51:27.340Z,165.62
2023-05-18T03:52:28.430Z,162.66
2023-05-18T03:53:28.343Z,163.45
2023-05-18T03:54:28.307Z,165.20
2023-05-18T03:55:28.382Z,166.11
2023-05-18T03:56:27.304Z,166.42
2023-05-18T03:57:27.314Z,162.07
2023-05-18T03:58:27.293Z,164.36
2023-05-18T03:59:28.276Z,164.73
2023-05-18T04:00:27.303Z,163.66
2023-05-18T04:01:28.252Z,165.37
2023-05-18T04:02:28.382Z,162.87
2023-05-18T04:03:27.442Z,164.34
2023-05-18T04:04:27.505Z,163.14
2023-05-18T04:05:28.602Z,162.51
2023-05-18T04:06:28.413Z,164.97
2023-05-18T04:07:28.449Z,164.61
2023-05-18T04:08:28.469Z,164.42
2023-05-18T04:09:28.524Z,161.61
2023-05-18T04:10:28.556Z,165.62
2023-05-18T04:11:28.569Z,162.45
2023-05-18T04:12:28.611Z,162.66
2023-05-18T04:13:28.635Z,161.31
2023-05-18T04:14:27.681Z,162.47
2023-05-18T04:15:28.799Z,163.09
2023-05-18T04:16:27.794Z,163.00
2023-05-18T04:17:27.771Z,162.31
2023-05-18T04:18:28.777Z,161.04
2023-05-18T04:19:28.888Z,163.64
2023-05-18T04:20:28.860Z,161.70
2023-05-18T04:21:27.898Z,160.97
2023-05-18T04:22:28.926Z,162.31
2023-05-18T04:23:28.955Z,159.80
2023-05-18T04:24:28.983Z,163.00
2023-05-18T04:25:29.163Z,161.83
2023-05-18T04:26:28.043Z,159.10
2023-05-18T04:27:28.097Z,159.47
2023-05-18T04:28:29.126Z,160.69
2023-05-18T04:29:28.139Z,160.64
2023-05-18T04:30:29.181Z,160.81
2023-05-18T04:31:29.202Z,160.33
2023-05-18T04:32:29.273Z,161.14
2023-05-18T04:33:29.251Z,159.89
2023-05-18T04:34:29.309Z,160.68
2023-05-18T04:35:28.441Z,160.61
2023-05-18T04:36:28.378Z,160.54
2023-05-18T04:37:28.407Z,159.36
2023-05-18T04:38:29.427Z,158.20
2023-05-18T04:39:28.498Z,157.05
2023-05-18T04:40:28.517Z,158.90
2023-05-18T04:41:29.568Z,162.69
2023-05-18T04:42:28.572Z,158.40
2023-05-18T04:43:28.630Z,158.75
2023-05-18T04:44:28.644Z,159.95
2023-05-18T04:45:28.901Z,157.81
2023-05-18T04:46:29.749Z,157.36
2023-05-18T04:47:29.767Z,157.70
2023-05-18T04:48:28.774Z,159.68
2023-05-18T04:49:29.810Z,157.52
2023-05-18T04:50:29.898Z,156.44
2023-05-18T04:51:28.896Z,156.03
2023-05-18T04:52:28.951Z,157.72
2023-05-18T04:53:28.983Z,157.59
2023-05-18T04:54:30.008Z,155.91
2023-05-18T04:55:29.704Z,155.72
2023-05-18T04:56:30.100Z,153.88
2023-05-18T04:57:30.208Z,158.32
2023-05-18T04:58:30.572Z,155.81
2023-05-18T04:59:30.225Z,157.58
2023-05-18T05:00:30.273Z,157.20
2023-05-18T05:01:29.312Z,156.13
2023-05-18T05:02:29.397Z,154.11
2023-05-18T05:03:30.501Z,156.61
2023-05-18T05:04:30.389Z,154.18
2023-05-18T05:05:30.733Z,156.22
2023-05-18T05:06:30.442Z,154.98
2023-05-18T05:07:29.509Z,155.85
2023-05-18T05:08:30.551Z,154.58
2023-05-18T05:09:30.618Z,157.47
2023-05-18T05:10:29.619Z,152.38
2023-05-18T05:11:29.628Z,154.59
2023-05-18T05:12:30.663Z,151.38
2023-05-18T05:13:30.772Z,154.66
2023-05-18T05:14:30.722Z,152.38
2023-05-18T05:15:30.897Z,152.46
2023-05-18T05:16:29.880Z,152.02
2023-05-18T05:17:29.941Z,152.24
2023-05-18T05:18:30.892Z,155.12
2023-05-18T05:19:29.930Z,152.16
2023-05-18T05:20:30.961Z,150.79
2023-05-18T05:21:29.979Z,152.66
2023-05-18T05:22:31.087Z,152.59
2023-05-18T05:23:30.095Z,153.91
2023-05-18T05:24:31.116Z,150.90
2023-05-18T05:25:30.260Z,152.80
2023-05-18T05:26:31.157Z,152.76
2023-05-18T05:27:31.182Z,151.19
2023-05-18T05:28:31.232Z,150.35
2023-05-18T05:29:31.289Z,151.87
2023-05-18T05:30:31.275Z,150.08
2023-05-18T05:31:30.352Z,150.56
2023-05-18T05:32:30.457Z,147.69
2023-05-18T05:33:31.416Z,149.83
2023-05-18T05:34:30.449Z,151.38
2023-05-18T05:35:33.559Z,152.57
2023-05-18T05:36:31.444Z,152.78
2023-05-18T05:37:31.496Z,152.36
2023-05-18T05:38:31.422Z,150.74
2023-05-18T05:39:31.418Z,149.94
2023-05-18T05:40:30.434Z,149.33
2023-05-18T05:41:32.410Z,148.46
2023-05-18T05:42:31.474Z,150.82
2023-05-18T05:43:31.429Z,150.02
2023-05-18T05:44:31.386Z,148.10
2023-05-18T05:45:30.698Z,147.42
2023-05-18T05:46:31.413Z,146.72
2023-05-18T05:47:30.394Z,148.02
2023-05-18T05:48:31.380Z,150.78
2023-05-18T05:49:30.973Z,149.46
2023-05-18T05:50:30.412Z,146.19
2023-05-18T05:51:30.461Z,147.56
2023-05-18T05:52:30.490Z,147.30
2023-05-18T05:53:30.551Z,145.36
2023-05-18T05:54:31.560Z,148.91
2023-05-18T05:55:31.818Z,146.66
2023-05-18T05:56:31.609Z,147.41
2023-05-18T05:57:30.655Z,148.03
2023-05-18T05:58:30.681Z,147.71
2023-05-18T05:59:31.691Z,147.57
2023-05-18T06:00:30.756Z,146.79
2023-05-18T06:01:30.781Z,145.93
2023-05-18T06:02:31.885Z,146.21
2023-05-18T06:03:34.362Z,146.23
2023-05-18T06:04:30.860Z,146.35
2023-05-18T06:05:32.214Z,146.43
2023-05-18T06:06:31.804Z,146.75
2023-05-18T06:07:31.817Z,146.34
2023-05-18T06:08:31.787Z,145.89
2023-05-18T06:09:30.787Z,143.77
2023-05-18T06:10:30.785Z,143.93
2023-05-18T06:11:31.783Z,143.83
2023-05-18T06:12:30.766Z,144.28
2023-05-18T06:13:30.770Z,142.82
2023-05-18T06:14:30.791Z,144.28
2023-05-18T06:15:32.083Z,146.19
2023-05-18T06:16:31.787Z,142.41
2023-05-18T06:17:31.788Z,143.43
2023-05-18T06:18:31.729Z,144.64
2023-05-18T06:19:31.724Z,143.48
2023-05-18T06:20:31.737Z,144.04
2023-05-18T06:21:31.766Z,142.74
2023-05-18T06:22:31.808Z,139.90
2023-05-18T06:23:31.820Z,143.20
2023-05-18T06:24:31.814Z,141.87
2023-05-18T06:25:32.105Z,141.62
2023-05-18T06:26:30.846Z,141.78
2023-05-18T06:27:30.883Z,142.18
2023-05-18T06:28:30.914Z,141.35
2023-05-18T06:29:30.954Z,141.76
2023-05-18T06:30:31.958Z,139.94
2023-05-18T06:31:32.014Z,140.79
2023-05-18T06:32:32.008Z,142.16
2023-05-18T06:33:31.066Z,140.75
2023-05-18T06:34:32.043Z,141.78
2023-05-18T06:35:32.246Z,142.92
2023-05-18T06:36:31.075Z,142.05
2023-05-18T06:37:32.122Z,142.09
2023-05-18T06:38:31.132Z,141.00
2023-05-18T06:39:31.162Z,138.49
2023-05-18T06:40:32.180Z,140.04
2023-05-18T06:41:32.195Z,139.64
2023-05-18T06:42:31.228Z,142.15
2023-05-18T06:43:31.238Z,140.04
2023-05-18T06:44:32.272Z,141.12
2023-05-18T06:45:32.607Z,141.77
2023-05-18T06:46:31.401Z,143.43
2023-05-18T06:47:32.275Z,142.72
2023-05-18T06:48:32.253Z,141.16
2023-05-18T06:49:32.282Z,139.65
2023-05-18T06:50:31.242Z,141.69
2023-05-18T06:51:31.231Z,142.68
2023-05-18T06:52:32.238Z,142.14
2023-05-18T06:53:31.245Z,142.41
2023-05-18T06:54:32.201Z,140.37
2023-05-18T06:55:31.374Z,142.45
2023-05-18T06:56:31.192Z,141.37
2023-05-18T06:57:31.187Z,142.74
2023-05-18T06:58:32.189Z,141.95
2023-05-18T06:59:31.220Z,140.78
2023-05-18T07:00:31.172Z,141.53
2023-05-18T07:01:32.190Z,141.20
2023-05-18T07:02:32.192Z,140.95
2023-05-18T07:03:32.190Z,142.71
2023-05-18T07:04:32.144Z,139.77
2023-05-18T07:05:32.385Z,142.75
2023-05-18T07:06:32.123Z,139.11
2023-05-18T07:07:31.140Z,142.61
2023-05-18T07:08:32.181Z,140.06
2023-05-18T07:09:31.109Z,143.71
2023-05-18T07:10:32.085Z,142.94
2023-05-18T07:11:32.086Z,142.24
2023-05-18T07:12:31.073Z,140.64
2023-05-18T07:13:31.085Z,141.57
2023-05-18T07:14:32.072Z,141.48
2023-05-18T07:15:31.208Z,141.81
2023-05-18T07:16:32.207Z,142.47
2023-05-18T07:17:31.042Z,142.45
2023-05-18T07:18:32.030Z,143.07
2023-05-18T07:19:31.146Z,139.27
2023-05-18T07:20:32.014Z,141.16
2023-05-18T07:21:31.048Z,140.65
2023-05-18T07:22:32.009Z,142.14
2023-05-18T07:23:32.022Z,140.19
2023-05-18T07:24:31.015Z,141.45
2023-05-18T07:25:31.275Z,139.69
2023-05-18T07:26:31.979Z,139.21
2023-05-18T07:27:31.995Z,137.65
2023-05-18T07:28:31.968Z,140.70
2023-05-18T07:29:30.956Z,139.25
2023-05-18T07:30:31.947Z,140.14
2023-05-18T07:31:31.007Z,139.45
2023-05-18T07:32:31.992Z,136.01
2023-05-18T07:33:31.924Z,136.55
2023-05-18T07:34:30.917Z,137.23
2023-05-18T07:35:32.085Z,139.33
2023-05-18T07:36:30.928Z,140.23
2023-05-18T07:37:30.923Z,138.84
2023-05-18T07:38:31.894Z,138.44
2023-05-18T07:39:31.896Z,137.93
2023-05-18T07:40:31.880Z,139.48
2023-05-18T07:41:31.888Z,137.80
2023-05-18T07:42:30.866Z,135.96
2023-05-18T07:43:30.881Z,136.80
2023-05-18T07:44:31.868Z,137.99
2023-05-18T07:45:31.073Z,138.31
2023-05-18T07:46:32.089Z,135.40
2023-05-18T07:47:30.999Z,135.79
2023-05-18T07:48:30.850Z,138.75
2023-05-18T07:49:31.839Z,136.83
2023-05-18T07:50:31.834Z,136.18
2023-05-18T07:51:31.807Z,137.47
2023-05-18T07:52:30.904Z,134.99
2023-05-18T07:53:31.922Z,138.79
2023-05-18T07:54:30.851Z,135.50
2023-05-18T07:55:31.247Z,135.28
2023-05-18T07:56:30.879Z,137.62
2023-05-18T07:57:30.894Z,134.65
2023-05-18T07:58:31.930Z,135.76
2023-05-18T07:59:31.939Z,136.03
2023-05-18T08:00:31.101Z,134.45
2023-05-18T08:01:30.988Z,134.35
2023-05-18T08:02:33.832Z,133.88
2023-05-18T08:03:32.203Z,135.69
2023-05-18T08:04:31.069Z,140.23
2023-05-18T08:05:31.318Z,135.66
2023-05-18T08:06:31.227Z,136.21
2023-05-18T08:07:32.198Z,135.64
2023-05-18T08:08:30.936Z,135.03
2023-05-18T08:09:32.604Z,132.23
2023-05-18T08:10:31.121Z,135.44
2023-05-18T08:11:32.145Z,133.75
2023-05-18T08:12:32.219Z,131.75
2023-05-18T08:13:33.844Z,134.64
2023-05-18T08:14:32.234Z,135.48
2023-05-18T08:15:32.239Z,137.32
2023-05-18T08:16:32.142Z,134.40
2023-05-18T08:17:31.969Z,132.20
2023-05-18T08:18:31.915Z,132.24
2023-05-18T08:19:32.082Z,130.27
2023-05-18T08:20:30.876Z,132.90
2023-05-18T08:21:31.920Z,132.15
2023-05-18T08:22:31.853Z,131.57
2023-05-18T08:23:31.969Z,131.23
2023-05-18T08:24:31.893Z,133.49
2023-05-18T08:25:31.173Z,131.48
2023-05-18T08:26:30.873Z,131.14
2023-05-18T08:27:30.864Z,130.96
2023-05-18T08:28:30.821Z,131.05
2023-05-18T08:29:30.857Z,130.96
2023-05-18T08:30:31.802Z,130.64
2023-05-18T08:31:31.819Z,130.42
2023-05-18T08:32:31.828Z,131.62
2023-05-18T08:33:30.795Z,131.65
2023-05-18T08:34:30.778Z,128.81
2023-05-18T08:35:31.255Z,129.68
2023-05-18T08:36:30.777Z,131.23
2023-05-18T08:37:31.886Z,129.85
2023-05-18T08:38:31.766Z,130.46
2023-05-18T08:39:30.840Z,128.87
2023-05-18T08:40:30.733Z,130.04
2023-05-18T08:41:31.751Z,127.19
2023-05-18T08:42:41.578Z,129.06
2023-05-18T08:43:31.727Z,129.25
2023-05-18T08:44:31.698Z,129.23
2023-05-18T08:45:32.010Z,129.22
2023-05-18T08:46:31.673Z,128.72
2023-05-18T08:47:31.715Z,127.86
2023-05-18T08:48:30.770Z,130.23
2023-05-18T08:49:31.692Z,130.15
2023-05-18T08:50:30.871Z,127.95
2023-05-18T08:51:30.640Z,125.74
2023-05-18T08:52:31.637Z,129.04
2023-05-18T08:53:31.622Z,128.27
2023-05-18T08:54:31.615Z,129.76
2023-05-18T08:55:31.828Z,126.52
2023-05-18T08:56:31.611Z,129.94
2023-05-18T08:57:31.744Z,126.36
2023-05-18T08:58:31.647Z,125.83
2023-05-18T08:59:30.755Z,124.97
2023-05-18T09:00:30.933Z,125.56
2023-05-18T09:01:32.451Z,128.17
2023-05-18T09:02:30.818Z,125.77
2023-05-18T09:03:30.900Z,129.29
2023-05-18T09:04:30.838Z,130.20
2023-05-18T09:05:31.071Z,127.34
2023-05-18T09:06:31.901Z,126.19
2023-05-18T09:07:30.955Z,127.65
2023-05-18T09:08:31.100Z,129.95
2023-05-18T09:09:32.145Z,126.98
2023-05-18T09:10:31.097Z,125.46
2023-05-18T09:11:32.001Z,127.56
2023-05-18T09:12:31.046Z,126.98
2023-05-18T09:13:32.300Z,123.35
2023-05-18T09:14:31.193Z,125.47
2023-05-18T09:15:32.273Z,126.14
2023-05-18T09:16:32.373Z,125.14
2023-05-18T09:17:31.246Z,125.14
2023-05-18T09:18:31.187Z,124.22
2023-05-18T09:19:32.506Z,125.67
2023-05-18T09:20:31.477Z,124.37
2023-05-18T09:21:31.244Z,124.14
2023-05-18T09:22:31.335Z,123.60
2023-05-18T09:23:31.360Z,124.93
2023-05-18T09:24:31.314Z,124.06
2023-05-18T09:25:31.733Z,124.77
2023-05-18T09:26:32.436Z,127.96
2023-05-18T09:27:31.617Z,126.19
2023-05-18T09:28:31.722Z,128.44
2023-05-18T09:29:33.716Z,121.91
2023-05-18T09:30:31.915Z,123.20
2023-05-18T09:31:31.974Z,124.17
2023-05-18T09:32:32.881Z,125.84
2023-05-18T09:33:31.857Z,124.52
2023-05-18T09:34:32.077Z,122.46
2023-05-18T09:35:33.054Z,123.28
2023-05-18T09:36:32.105Z,122.55
2023-05-18T09:37:32.030Z,121.68
2023-05-18T09:38:32.021Z,121.80
2023-05-18T09:39:32.000Z,120.29
2023-05-18T09:40:33.227Z,122.86
2023-05-18T09:41:32.183Z,123.69
2023-05-18T09:42:33.291Z,122.61
2023-05-18T09:43:32.236Z,122.58
2023-05-18T09:44:32.324Z,122.99
2023-05-18T09:45:33.299Z,124.25
2023-05-18T09:46:32.328Z,120.56
2023-05-18T09:47:33.277Z,121.00
2023-05-18T09:48:32.355Z,120.10
2023-05-18T09:49:32.563Z,121.89
2023-05-18T09:50:33.228Z,123.84
2023-05-18T09:51:33.578Z,120.08
2023-05-18T09:52:33.550Z,121.15
2023-05-18T09:53:33.622Z,121.38
2023-05-18T09:54:33.769Z,121.50
2023-05-18T09:55:32.893Z,122.55
2023-05-18T09:56:33.459Z,121.22
2023-05-18T09:57:32.492Z,121.30
2023-05-18T09:58:33.583Z,121.51
2023-05-18T09:59:33.536Z,121.29
2023-05-18T10:00:32.549Z,120.63
2023-05-18T10:01:33.864Z,117.87
2023-05-18T10:02:33.611Z,121.53
2023-05-18T10:03:33.673Z,119.22
2023-05-18T10:04:32.907Z,120.91
2023-05-18T10:05:36.114Z,117.59
2023-05-18T10:06:32.943Z,120.97
2023-05-18T10:07:32.919Z,118.77
2023-05-18T10:08:33.705Z,119.31
2023-05-18T10:09:32.692Z,121.60
2023-05-18T10:10:33.946Z,120.19
2023-05-18T10:11:33.902Z,121.68
2023-05-18T10:12:33.844Z,121.82
2023-05-18T10:13:32.675Z,120.20
2023-05-18T10:14:33.980Z,118.81
2023-05-18T10:15:33.906Z,121.24
2023-05-18T10:16:33.712Z,117.64
2023-05-18T10:17:32.920Z,114.90
2023-05-18T10:18:33.629Z,118.10
2023-05-18T10:19:32.632Z,118.64
2023-05-18T10:20:32.765Z,118.26
2023-05-18T10:21:32.620Z,118.67
2023-05-18T10:22:33.610Z,120.19
2023-05-18T10:23:32.844Z,116.53
2023-05-18T10:24:33.627Z,117.92
2023-05-18T10:25:32.679Z,117.24
2023-05-18T10:26:32.571Z,117.74
2023-05-18T10:27:33.578Z,116.35
2023-05-18T10:28:32.567Z,115.14
2023-05-18T10:29:33.561Z,116.51
2023-05-18T10:30:33.771Z,116.14
2023-05-18T10:31:32.574Z,115.26
2023-05-18T10:32:32.570Z,115.21
2023-05-18T10:33:33.627Z,114.95
2023-05-18T10:34:32.525Z,116.16
2023-05-18T10:35:33.538Z,114.76
2023-05-18T10:36:33.521Z,116.38
2023-05-18T10:37:33.503Z,115.03
2023-05-18T10:38:33.489Z,114.00
2023-05-18T10:39:32.486Z,114.89
2023-05-18T10:40:32.649Z,114.36
2023-05-18T10:41:32.502Z,118.56
2023-05-18T10:42:32.517Z,118.06
2023-05-18T10:43:32.483Z,115.92
2023-05-18T10:44:32.782Z,115.65
2023-05-18T10:45:33.455Z,117.33
2023-05-18T10:46:33.688Z,114.22
2023-05-18T10:47:33.698Z,116.32
2023-05-18T10:48:32.466Z,115.16
2023-05-18T10:49:33.720Z,114.39
2023-05-18T10:50:32.798Z,114.40
2023-05-18T10:51:32.527Z,115.16
2023-05-18T10:52:33.545Z,112.34
2023-05-18T10:53:32.587Z,116.75
2023-05-18T10:54:33.701Z,114.73
2023-05-18T10:55:33.636Z,114.69
2023-05-18T10:56:32.619Z,113.11
2023-05-18T10:57:32.656Z,112.93
2023-05-18T10:58:32.672Z,112.88
2023-05-18T10:59:33.090Z,111.89
2023-05-18T11:00:32.927Z,113.25
2023-05-18T11:01:32.764Z,113.38
2023-05-18T11:02:33.098Z,114.12
2023-05-18T11:03:32.885Z,115.12
2023-05-18T11:04:32.843Z,113.82
2023-05-18T11:05:32.861Z,113.22
2023-05-18T11:06:33.853Z,110.58
2023-05-18T11:07:34.085Z,114.07
2023-05-18T11:08:34.113Z,114.30
2023-05-18T11:09:32.913Z,113.72
2023-05-18T11:10:33.106Z,111.67
2023-05-18T11:11:33.930Z,112.42
2023-05-18T11:12:34.003Z,114.18
2023-05-18T11:13:33.007Z,112.45
2023-05-18T11:14:34.122Z,111.26
2023-05-18T11:15:34.093Z,110.16
2023-05-18T11:16:34.158Z,109.38
2023-05-18T11:17:34.206Z,111.92
2023-05-18T11:18:33.160Z,108.79
2023-05-18T11:19:34.130Z,108.97
2023-05-18T11:20:33.402Z,111.59
2023-05-18T11:21:33.305Z,110.50
2023-05-18T11:22:33.263Z,108.12
2023-05-18T11:23:34.217Z,111.78
2023-05-18T11:24:33.499Z,112.11
2023-05-18T11:25:33.303Z,113.84
2023-05-18T11:26:33.554Z,109.25
2023-05-18T11:27:33.339Z,111.54
2023-05-18T11:28:34.352Z,109.54
2023-05-18T11:29:34.398Z,112.68
2023-05-18T11:30:33.723Z,109.17
2023-05-18T11:31:34.481Z,109.07
2023-05-18T11:32:33.609Z,111.04
2023-05-18T11:33:34.489Z,113.02
2023-05-18T11:34:33.500Z,111.47
2023-05-18T11:35:33.545Z,109.84
2023-05-18T11:36:34.598Z,111.72
2023-05-18T11:37:34.608Z,110.40
2023-05-18T11:38:34.643Z,110.02
2023-05-18T11:39:34.759Z,111.24
2023-05-18T11:40:34.735Z,109.35
2023-05-18T11:41:34.797Z,109.66
2023-05-18T11:42:33.795Z,110.44
2023-05-18T11:43:34.821Z,110.70
2023-05-18T11:44:34.870Z,110.08
2023-05-18T11:45:33.937Z,108.18
2023-05-18T11:46:34.912Z,109.54
2023-05-18T11:47:34.058Z,110.60
2023-05-18T11:48:35.076Z,108.42
2023-05-18T11:49:34.015Z,111.56
2023-05-18T11:50:35.057Z,109.47
2023-05-18T11:51:35.090Z,109.51
2023-05-18T11:52:34.174Z,111.98
2023-05-18T11:53:34.169Z,108.74
2023-05-18T11:54:34.191Z,107.44
2023-05-18T11:55:35.294Z,106.57
2023-05-18T11:56:35.274Z,107.41
2023-05-18T11:57:34.348Z,107.11
2023-05-18T11:58:34.357Z,110.19
2023-05-18T11:59:34.389Z,105.98
2023-05-18T12:00:35.424Z,108.89
2023-05-18T12:01:35.469Z,107.05
2023-05-18T12:02:34.582Z,106.69
2023-05-18T12:03:35.618Z,109.33
2023-05-18T12:04:35.662Z,108.66
2023-05-18T12:05:35.727Z,110.10
2023-05-18T12:06:34.641Z,109.54
2023-05-18T12:07:35.689Z,103.75
2023-05-18T12:08:35.747Z,107.43
2023-05-18T12:09:34.763Z,108.58
2023-05-18T12:10:34.817Z,109.68
2023-05-18T12:11:35.855Z,107.66
2023-05-18T12:12:35.900Z,107.72
2023-05-18T12:13:35.932Z,105.24
2023-05-18T12:14:34.975Z,109.92
2023-05-18T12:15:36.060Z,107.43
2023-05-18T12:16:35.166Z,107.70
2023-05-18T12:17:36.124Z,110.36
2023-05-18T12:18:35.243Z,109.02
2023-05-18T12:19:35.217Z,106.47
2023-05-18T12:20:35.323Z,107.62
2023-05-18T12:21:35.284Z,110.27
2023-05-18T12:22:35.351Z,106.89
2023-05-18T12:23:36.355Z,107.04
2023-05-18T12:24:35.437Z,108.20
2023-05-18T12:25:35.455Z,107.69
2023-05-18T12:26:36.519Z,107.44
2023-05-18T12:27:35.576Z,109.00
2023-05-18T12:28:35.622Z,107.19